Time;durP1;ratioP1;P1;durP2;ratioP2;P2;SDS_P1;SDS_P2;PMS_P1;PMS_P2;Temp;Humidity;BMP_temperature;BMP_pressure;BME280_temperature;BME280_humidity;BME280_pressure;Samples;Min_cycle;Max_cycle;Signal;HPM_P1;HPM_P2
2022/11/27 00:01:52;;;;;;;20.17;12.47;;;;;;;6.31;100.00;100390.09;5066978;28;20303;-80
2022/11/27 00:04:20;;;;;;;25.70;12.80;;;;;;;6.30;100.00;100390.16;5065771;28;20219;-80
2022/11/27 00:06:49;;;;;;;20.40;11.93;;;;;;;6.26;100.00;100381.44;5066195;28;20196;-80
2022/11/27 00:09:17;;;;;;;19.17;12.37;;;;;;;6.17;100.00;100380.84;5077200;28;20275;-80
2022/11/27 00:11:47;;;;;;;22.23;13.50;;;;;;;6.21;100.00;100382.50;5133998;28;20647;-80
2022/11/27 00:14:18;;;;;;;24.43;13.80;;;;;;;6.17;100.00;100371.16;5129512;28;20694;-80
2022/11/27 00:16:47;;;;;;;23.93;14.13;;;;;;;6.29;100.00;100373.50;5131182;28;20198;-80
2022/11/27 00:19:15;;;;;;;21.63;13.93;;;;;;;6.20;100.00;100367.63;5133748;28;20200;-80
2022/11/27 00:21:44;;;;;;;26.30;15.00;;;;;;;6.22;100.00;100366.66;5126915;28;20246;-80
2022/11/27 00:24:12;;;;;;;25.40;15.43;;;;;;;6.31;100.00;100363.78;5080100;28;20217;-80
2022/11/27 00:26:40;;;;;;;28.17;16.67;;;;;;;6.23;100.00;100363.13;5130441;28;20684;-80
2022/11/27 00:29:13;;;;;;;28.17;16.20;;;;;;;6.31;100.00;100355.91;5133290;28;20205;-80
2022/11/27 00:31:43;;;;;;;23.77;15.80;;;;;;;6.28;100.00;100356.00;5126983;28;20199;-80
2022/11/27 00:34:16;;;;;;;23.37;17.10;;;;;;;6.14;100.00;100352.84;5133576;28;20287;-80
2022/11/27 00:36:44;;;;;;;26.53;16.63;;;;;;;6.27;100.00;100350.75;5125887;28;20187;-80
2022/11/27 00:39:15;;;;;;;30.43;17.97;;;;;;;6.29;100.00;100355.06;5126657;28;20202;-79
2022/11/27 00:41:44;;;;;;;31.70;17.77;;;;;;;6.31;100.00;100350.63;5133586;28;20217;-80
2022/11/27 00:44:16;;;;;;;29.63;18.33;;;;;;;6.21;100.00;100350.94;5096718;28;20685;-80
2022/11/27 00:46:46;;;;;;;27.60;17.23;;;;;;;6.04;100.00;100354.00;5130778;28;20187;-79
2022/11/27 00:49:15;;;;;;;23.17;17.57;;;;;;;6.08;100.00;100346.88;5081836;28;20710;-80
2022/11/27 00:51:44;;;;;;;30.47;18.13;;;;;;;6.10;100.00;100347.72;5129763;28;20186;-79
2022/11/27 00:54:13;;;;;;;29.80;16.87;;;;;;;6.07;100.00;100351.28;5127865;28;20190;-80
2022/11/27 00:56:41;;;;;;;29.40;17.97;;;;;;;6.00;100.00;100353.22;5129378;28;20239;-79
2022/11/27 00:59:10;;;;;;;29.77;17.90;;;;;;;6.11;100.00;100342.41;5131421;28;20228;-80
2022/11/27 01:01:42;;;;;;;28.63;18.50;;;;;;;6.12;100.00;100349.41;5129434;28;20198;-79
2022/11/27 01:04:13;;;;;;;32.80;18.30;;;;;;;6.19;100.00;100350.13;5130808;28;20226;-80
2022/11/27 01:06:42;;;;;;;31.20;18.90;;;;;;;6.15;100.00;100343.19;5133768;28;20199;-80
2022/11/27 01:09:12;;;;;;;32.03;18.30;;;;;;;6.09;100.00;100332.84;5124558;28;20243;-80
2022/11/27 01:11:42;;;;;;;30.97;18.00;;;;;;;6.12;100.00;100343.28;5133288;28;20194;-79
2022/11/27 01:14:18;;;;;;;32.30;17.70;;;;;;;6.02;100.00;100343.53;5132672;28;20194;-79
2022/11/27 01:16:48;;;;;;;31.60;19.73;;;;;;;5.95;100.00;100336.69;5131893;27;20186;-79
2022/11/27 01:19:18;;;;;;;29.37;19.03;;;;;;;6.06;100.00;100343.44;5130081;27;20198;-80
2022/11/27 01:21:47;;;;;;;33.67;18.73;;;;;;;6.00;100.00;100340.06;5136844;27;20251;-79
2022/11/27 01:24:16;;;;;;;27.77;18.70;;;;;;;5.95;100.00;100334.06;5129645;27;20386;-80
2022/11/27 01:26:45;;;;;;;31.47;18.43;;;;;;;5.87;100.00;100328.09;5133898;27;20190;-80
2022/11/27 01:29:14;;;;;;;32.87;17.70;;;;;;;5.93;100.00;100330.63;5132732;27;20726;-80
2022/11/27 01:31:42;;;;;;;29.07;18.17;;;;;;;5.93;100.00;100333.25;5129447;27;20194;-80
2022/11/27 01:34:16;;;;;;;31.67;18.00;;;;;;;5.98;100.00;100328.75;5126970;27;20245;-80
2022/11/27 01:36:45;;;;;;;30.40;18.17;;;;;;;5.92;100.00;100321.00;5133494;27;20637;-79
2022/11/27 01:39:17;;;;;;;27.73;18.20;;;;;;;6.02;100.00;100321.63;5131789;27;20255;-79
2022/11/27 01:41:46;;;;;;;28.33;17.73;;;;;;;5.90;100.00;100320.19;5136458;27;20734;-80
2022/11/27 01:44:53;;;;;;;34.17;18.77;;;;;;;5.96;100.00;100321.78;5135235;27;20266;-79
2022/11/27 01:47:36;;;;;;;24.43;15.97;;;;;;;5.85;100.00;100315.91;5132025;27;20238;-79
2022/11/27 01:53:06;;;;;;;22.20;15.17;;;;;;;5.80;100.00;100312.56;5131313;27;20533;-79
2022/11/27 01:55:37;;;;;;;22.47;15.60;;;;;;;5.69;100.00;100318.94;5133873;27;20194;-79
2022/11/27 01:58:12;;;;;;;25.67;15.20;;;;;;;5.80;100.00;100325.69;5131577;27;20191;-80
2022/11/27 02:00:42;;;;;;;25.90;15.90;;;;;;;5.78;100.00;100335.38;5132676;27;20202;-80
2022/11/27 02:03:12;;;;;;;25.27;15.47;;;;;;;5.74;100.00;100334.59;5129185;27;20237;-79
2022/11/27 02:05:40;;;;;;;22.90;15.87;;;;;;;5.45;100.00;100330.91;5126264;28;20383;-79
2022/11/27 02:08:13;;;;;;;25.30;15.23;;;;;;;5.68;100.00;100337.34;5125850;27;20202;-79
2022/11/27 02:10:49;;;;;;;26.37;14.77;;;;;;;5.69;100.00;100339.97;5131119;27;20197;-79
2022/11/27 02:13:23;;;;;;;17.23;9.83;;;;;;;5.54;100.00;100334.22;5095500;28;20198;-79
2022/11/27 02:16:03;;;;;;;15.83;9.20;;;;;;;5.53;100.00;100324.63;5129054;27;20194;-79
2022/11/27 02:18:38;;;;;;;19.23;9.90;;;;;;;5.50;100.00;100316.78;5128851;27;20237;-79
2022/11/27 02:21:14;;;;;;;16.13;8.57;;;;;;;5.58;100.00;100317.47;5133539;27;20242;-79
2022/11/27 02:24:04;;;;;;;15.60;8.73;;;;;;;5.53;100.00;100307.09;5128056;27;20203;-79
2022/11/27 02:27:05;;;;;;;14.17;8.20;;;;;;;5.55;100.00;100296.53;5080886;28;20198;-80
2022/11/27 02:29:36;;;;;;;11.60;6.87;;;;;;;5.57;100.00;100289.47;5129773;27;20187;-79
2022/11/27 02:32:10;;;;;;;12.97;7.73;;;;;;;5.56;100.00;100295.63;5129764;27;20214;-80
2022/11/27 02:34:47;;;;;;;13.37;6.80;;;;;;;5.52;100.00;100292.22;5133115;27;20255;-79
2022/11/27 02:37:20;;;;;;;11.87;7.83;;;;;;;5.47;100.00;100299.34;5130339;27;20258;-79
2022/11/27 02:39:55;;;;;;;13.30;7.43;;;;;;;5.58;100.00;100284.16;5094859;28;20232;-79
2022/11/27 02:42:29;;;;;;;11.67;8.03;;;;;;;5.47;100.00;100291.47;5130297;27;20194;-79
2022/11/27 02:45:03;;;;;;;13.20;7.80;;;;;;;5.59;100.00;100285.03;5129478;27;20227;-79
2022/11/27 02:47:32;;;;;;;18.67;8.53;;;;;;;5.62;100.00;100285.81;5124907;27;20224;-80
2022/11/27 02:50:02;;;;;;;17.33;8.17;;;;;;;5.59;100.00;100287.66;5128600;27;20191;-79
2022/11/27 02:52:33;;;;;;;13.07;9.20;;;;;;;5.71;100.00;100290.00;5128629;27;20250;-80
2022/11/27 02:55:06;;;;;;;22.70;8.90;;;;;;;5.57;100.00;100289.47;5127331;27;20224;-79
2022/11/27 02:57:37;;;;;;;14.73;8.90;;;;;;;5.80;100.00;100287.13;5130277;27;20236;-80
2022/11/27 03:00:10;;;;;;;13.67;8.60;;;;;;;5.52;100.00;100283.47;5128724;27;20216;-80
2022/11/27 03:02:44;;;;;;;12.60;8.73;;;;;;;5.61;100.00;100284.09;5128402;27;20199;-80
2022/11/27 03:05:19;;;;;;;15.83;9.23;;;;;;;5.55;100.00;100284.25;5115566;27;20195;-80
2022/11/27 03:07:53;;;;;;;17.03;10.03;;;;;;;5.61;100.00;100270.09;5115933;28;20191;-80
2022/11/27 03:10:30;;;;;;;16.67;9.70;;;;;;;5.74;100.00;100261.84;5115973;28;20199;-80
2022/11/27 03:13:00;;;;;;;14.30;9.67;;;;;;;5.78;100.00;100261.75;5115670;28;20211;-80
2022/11/27 03:15:39;;;;;;;16.03;10.50;;;;;;;5.63;100.00;100255.16;5114799;27;20190;-80
2022/11/27 03:18:15;;;;;;;20.43;10.33;;;;;;;5.58;100.00;100254.41;5113781;28;20278;-79
2022/11/27 03:20:50;;;;;;;17.37;10.07;;;;;;;5.61;100.00;100260.44;5115886;28;20308;-80
2022/11/27 03:23:20;;;;;;;16.80;9.60;;;;;;;5.72;100.00;100255.78;5116363;27;20653;-79
2022/11/27 03:25:50;;;;;;;15.57;9.97;;;;;;;5.81;100.00;100262.56;5115862;28;20183;-80
2022/11/27 03:28:18;;;;;;;18.13;10.47;;;;;;;5.75;100.00;100258.31;5111456;28;20219;-80
2022/11/27 03:30:48;;;;;;;18.30;9.77;;;;;;;5.74;100.00;100255.72;5110696;28;20351;-80
2022/11/27 03:33:18;;;;;;;14.87;10.10;;;;;;;5.79;100.00;100266.09;5113210;28;20214;-80
2022/11/27 03:35:47;;;;;;;16.23;9.73;;;;;;;5.79;100.00;100258.22;5115301;28;20187;-79
2022/11/27 03:38:16;;;;;;;17.27;9.70;;;;;;;5.87;100.00;100251.84;5115641;27;20278;-79
2022/11/27 03:40:53;;;;;;;20.33;9.77;;;;;;;5.87;100.00;100261.50;5114550;27;20232;-80
2022/11/27 03:43:27;;;;;;;16.77;9.93;;;;;;;5.82;100.00;100252.91;5114686;28;20199;-79
2022/11/27 03:46:02;;;;;;;15.47;9.63;;;;;;;5.75;100.00;100247.78;5113937;28;20199;-79
2022/11/27 03:48:36;;;;;;;14.03;9.00;;;;;;;5.77;100.00;100234.59;5111061;28;20218;-79
2022/11/27 03:51:11;;;;;;;22.40;10.73;;;;;;;5.79;100.00;100224.94;5115015;28;20252;-79
2022/11/27 03:53:52;;;;;;;20.50;9.80;;;;;;;5.75;100.00;100236.41;5115136;28;20701;-80
2022/11/27 03:56:33;;;;;;;17.53;10.53;;;;;;;5.76;100.00;100238.13;5117580;27;20260;-80
2022/11/27 03:59:09;;;;;;;23.23;11.77;;;;;;;5.80;100.00;100224.03;5115265;28;20203;-80
2022/11/27 04:01:39;;;;;;;19.57;10.30;;;;;;;5.71;100.00;100225.13;5113372;27;20193;-80
2022/11/27 04:04:09;;;;;;;18.37;9.93;;;;;;;5.55;100.00;100225.56;5114882;28;20230;-80
2022/11/27 04:06:37;;;;;;;18.17;10.57;;;;;;;5.58;100.00;100228.97;5111716;28;20225;-80
2022/11/27 04:09:06;;;;;;;20.37;10.70;;;;;;;5.61;100.00;100231.53;5112193;28;20261;-79
2022/11/27 04:11:34;;;;;;;18.80;10.93;;;;;;;5.55;100.00;100225.56;5075854;28;20199;-80
2022/11/27 04:14:03;;;;;;;23.10;11.50;;;;;;;5.59;100.00;100220.19;5113680;28;20211;-79
2022/11/27 04:16:31;;;;;;;19.33;11.87;;;;;;;5.51;100.00;100213.44;5114048;28;20240;-79
2022/11/27 04:19:02;;;;;;;18.70;10.87;;;;;;;5.55;100.00;100221.19;5114401;27;20195;-79
2022/11/27 04:21:31;;;;;;;19.60;11.23;;;;;;;5.68;100.00;100219.94;5114907;28;20248;-79
2022/11/27 04:24:00;;;;;;;24.27;11.90;;;;;;;5.60;100.00;100221.06;5117168;27;20187;-80
2022/11/27 04:26:31;;;;;;;18.83;11.93;;;;;;;5.65;100.00;100222.66;5114770;28;20191;-79
2022/11/27 04:28:59;;;;;;;22.47;12.13;;;;;;;5.69;100.00;100208.56;5110011;28;20683;-79
2022/11/27 04:31:27;;;;;;;21.73;12.30;;;;;;;5.77;100.00;100203.06;5113600;28;20187;-78
2022/11/27 04:33:56;;;;;;;23.00;12.63;;;;;;;5.67;100.00;100215.59;5114055;28;20242;-79
2022/11/27 04:36:30;;;;;;;26.60;11.70;;;;;;;5.63;100.00;100206.06;5116103;28;20217;-79
2022/11/27 04:39:05;;;;;;;22.17;11.87;;;;;;;5.52;100.00;100212.53;5121740;28;20226;-79
2022/11/27 04:41:34;;;;;;;21.33;11.93;;;;;;;5.66;100.00;100203.34;5113348;28;20209;-79
2022/11/27 04:44:02;;;;;;;21.27;11.87;;;;;;;5.68;100.00;100203.31;5111845;28;20187;-79
2022/11/27 04:46:32;;;;;;;22.57;12.23;;;;;;;5.70;100.00;100201.53;5109760;28;20198;-79
2022/11/27 04:49:00;;;;;;;27.47;13.40;;;;;;;5.62;100.00;100204.34;5111925;28;20207;-79
2022/11/27 04:51:31;;;;;;;24.23;12.73;;;;;;;5.73;100.00;100202.28;5090975;28;20634;-79
2022/11/27 04:54:05;;;;;;;26.53;13.23;;;;;;;5.66;100.00;100215.63;5132452;27;20245;-79
2022/11/27 04:56:33;;;;;;;23.37;12.90;;;;;;;5.72;100.00;100211.09;5080093;27;20186;-80
2022/11/27 04:59:01;;;;;;;23.27;13.17;;;;;;;5.74;100.00;100211.03;5129584;27;20239;-79
2022/11/27 05:01:30;;;;;;;22.33;12.33;;;;;;;5.55;100.00;100212.44;5132126;27;20704;-80
2022/11/27 05:03:58;;;;;;;22.07;12.90;;;;;;;5.68;100.00;100203.31;5125386;27;20197;-79
2022/11/27 05:06:27;;;;;;;23.17;12.43;;;;;;;5.68;100.00;100204.16;5127094;27;20243;-80
2022/11/27 05:09:00;;;;;;;23.10;12.63;;;;;;;5.68;100.00;100198.91;5129875;27;20187;-79
2022/11/27 05:11:32;;;;;;;25.17;13.77;;;;;;;5.80;100.00;100197.75;5129125;27;20191;-79
2022/11/27 05:14:16;;;;;;;25.80;13.30;;;;;;;5.69;100.00;100195.41;5088883;28;20220;-79
2022/11/27 05:16:48;;;;;;;19.97;13.30;;;;;;;5.67;100.00;100191.94;5091207;28;20292;-80
2022/11/27 05:19:19;;;;;;;23.20;12.67;;;;;;;5.51;100.00;100184.53;5089291;28;20239;-79
2022/11/27 05:21:51;;;;;;;22.93;13.20;;;;;;;5.67;100.00;100181.44;5090979;28;20184;-80
2022/11/27 05:24:24;;;;;;;26.00;13.40;;;;;;;5.68;100.00;100180.50;5057784;28;20291;-79
2022/11/27 05:26:53;;;;;;;23.60;13.27;;;;;;;5.57;100.00;100187.84;5089000;28;20203;-80
2022/11/27 05:29:23;;;;;;;25.43;13.03;;;;;;;5.54;100.00;100184.44;5084780;28;20207;-79
2022/11/27 05:31:52;;;;;;;21.63;13.60;;;;;;;5.47;100.00;100181.97;5091864;28;20184;-79
2022/11/27 05:34:21;;;;;;;23.00;13.33;;;;;;;5.61;100.00;100172.88;5086153;28;20223;-79
2022/11/27 05:36:49;;;;;;;27.00;14.10;;;;;;;5.60;100.00;100168.53;5087753;28;20234;-79
2022/11/27 05:39:18;;;;;;;23.57;13.40;;;;;;;5.70;100.00;100172.63;5102409;28;20195;-79
2022/11/27 05:41:48;;;;;;;23.20;13.87;;;;;;;5.67;100.00;100176.16;5077552;28;20199;-79
2022/11/27 05:44:16;;;;;;;22.20;12.93;;;;;;;5.55;100.00;100171.25;5112355;28;20195;-79
2022/11/27 05:46:47;;;;;;;22.83;12.60;;;;;;;5.55;100.00;100170.41;5111638;28;20256;-79
2022/11/27 05:49:16;;;;;;;23.23;12.43;;;;;;;5.58;100.00;100172.94;5111913;28;20199;-79
2022/11/27 05:51:44;;;;;;;22.20;12.60;;;;;;;5.36;100.00;100170.03;5113139;28;20240;-79
2022/11/27 05:54:19;;;;;;;18.57;11.50;;;;;;;5.54;100.00;100172.16;5110884;28;20250;-79
2022/11/27 05:56:50;;;;;;;19.33;12.87;;;;;;;5.29;100.00;100173.69;5113329;28;20214;-79
2022/11/27 05:59:18;;;;;;;20.70;12.40;;;;;;;5.30;100.00;100172.81;5109836;28;20194;-79
2022/11/27 06:01:48;;;;;;;20.20;13.37;;;;;;;5.43;100.00;100169.81;5115572;27;20194;-79
2022/11/27 06:04:18;;;;;;;26.77;14.80;;;;;;;5.43;100.00;100176.84;5113304;28;20377;-79
2022/11/27 06:06:49;;;;;;;30.13;14.97;;;;;;;5.42;100.00;100167.25;5068105;28;20282;-79
2022/11/27 06:09:17;;;;;;;26.77;14.13;;;;;;;5.26;100.00;100163.28;5068364;28;20201;-79
2022/11/27 06:11:47;;;;;;;24.07;13.13;;;;;;;5.38;100.00;100147.19;4991065;28;20199;-79
2022/11/27 06:14:17;;;;;;;20.47;12.43;;;;;;;5.30;100.00;100144.75;4915258;29;20752;-79
2022/11/27 06:16:46;;;;;;;22.50;13.83;;;;;;;5.33;100.00;100135.97;4915928;29;20246;-79
2022/11/27 06:19:14;;;;;;;22.33;13.23;;;;;;;5.26;100.00;100134.41;4915613;29;20202;-79
2022/11/27 06:21:45;;;;;;;21.17;13.43;;;;;;;5.22;100.00;100131.00;4914444;29;20190;-79
2022/11/27 06:24:13;;;;;;;22.53;13.87;;;;;;;5.25;100.00;100133.53;4912056;29;20209;-79
2022/11/27 06:26:42;;;;;;;19.97;12.73;;;;;;;5.21;100.00;100129.28;4912937;29;20205;-78
2022/11/27 06:29:11;;;;;;;20.57;12.70;;;;;;;5.11;100.00;100131.25;4910616;29;20206;-79
2022/11/27 06:31:41;;;;;;;22.13;13.50;;;;;;;5.11;100.00;100138.28;4937680;28;20240;-79
2022/11/27 06:34:12;;;;;;;24.93;15.83;;;;;;;5.10;100.00;100132.16;4955629;28;20227;-79
2022/11/27 06:36:41;;;;;;;23.70;13.87;;;;;;;5.12;100.00;100124.28;5001062;28;20202;-79
2022/11/27 06:39:11;;;;;;;21.97;13.40;;;;;;;5.10;100.00;100128.69;5033027;28;20193;-80
2022/11/27 06:41:40;;;;;;;20.43;12.93;;;;;;;5.00;100.00;100130.69;5034188;28;20201;-79
2022/11/27 06:44:10;;;;;;;22.00;12.93;;;;;;;5.00;100.00;100128.06;5029370;28;20194;-79
2022/11/27 06:46:40;;;;;;;23.33;13.53;;;;;;;4.96;100.00;100125.56;5116441;28;20240;-79
2022/11/27 06:49:10;;;;;;;19.13;11.93;;;;;;;4.90;100.00;100126.56;5111998;28;20233;-79
2022/11/27 06:51:38;;;;;;;21.43;12.73;;;;;;;4.92;100.00;100127.38;5116319;28;20295;-79
2022/11/27 06:54:07;;;;;;;23.47;13.60;;;;;;;4.80;100.00;100119.81;5116417;28;20214;-80
2022/11/27 06:56:35;;;;;;;20.53;12.07;;;;;;;4.89;100.00;100128.31;5116577;28;20252;-80
2022/11/27 06:59:03;;;;;;;22.73;12.20;;;;;;;4.79;100.00;100118.09;5111709;28;20191;-80
2022/11/27 07:01:33;;;;;;;22.90;12.47;;;;;;;4.89;100.00;100117.81;5116301;28;20195;-80
2022/11/27 07:04:03;;;;;;;18.67;12.60;;;;;;;4.86;100.00;100115.28;5116114;28;20225;-79
2022/11/27 07:06:32;;;;;;;20.10;12.63;;;;;;;4.76;100.00;100113.81;5091298;28;20196;-79
2022/11/27 07:09:00;;;;;;;21.83;11.90;;;;;;;4.85;100.00;100121.44;5091094;28;20188;-79
2022/11/27 07:11:30;;;;;;;21.33;12.27;;;;;;;4.79;100.00;100124.22;5093928;28;20195;-79
2022/11/27 07:14:00;;;;;;;21.20;13.03;;;;;;;4.85;100.00;100117.97;5089094;28;20256;-79
2022/11/27 07:16:32;;;;;;;17.63;12.50;;;;;;;4.81;100.00;100114.53;5093436;28;20192;-80
2022/11/27 07:19:06;;;;;;;18.47;12.83;;;;;;;4.67;100.00;100121.91;5033047;28;20194;-79
2022/11/27 07:21:38;;;;;;;20.10;12.30;;;;;;;4.75;100.00;100109.47;5033118;28;20240;-79
2022/11/27 07:24:07;;;;;;;21.47;12.80;;;;;;;4.82;100.00;100107.50;5037689;28;20201;-79
2022/11/27 07:26:36;;;;;;;23.17;12.80;;;;;;;4.90;100.00;100110.81;5050685;28;20205;-79
2022/11/27 07:29:04;;;;;;;18.80;11.60;;;;;;;4.87;100.00;100103.03;5047418;28;20193;-80
2022/11/27 07:31:32;;;;;;;17.83;12.03;;;;;;;4.80;100.00;100090.97;5047536;28;20197;-79
2022/11/27 07:34:02;;;;;;;18.63;11.80;;;;;;;4.78;100.00;100088.38;5048028;28;20404;-79
2022/11/27 07:36:36;;;;;;;21.53;12.63;;;;;;;4.77;100.00;100081.41;5049555;28;20211;-79
2022/11/27 07:39:05;;;;;;;20.23;13.30;;;;;;;4.75;100.00;100091.09;5052243;28;20197;-80
2022/11/27 07:41:33;;;;;;;24.07;13.37;;;;;;;4.74;100.00;100102.47;5048345;28;20192;-80
2022/11/27 07:44:02;;;;;;;20.33;12.63;;;;;;;4.67;100.00;100108.78;5089174;28;20315;-79
2022/11/27 07:46:31;;;;;;;23.30;13.07;;;;;;;4.68;100.00;100110.50;5115865;27;20211;-80
2022/11/27 07:49:00;;;;;;;23.63;13.03;;;;;;;4.77;100.00;100109.41;5111535;28;20295;-80
2022/11/27 07:51:30;;;;;;;22.27;12.83;;;;;;;4.74;100.00;100114.75;5112437;28;20211;-79
2022/11/27 07:53:59;;;;;;;20.43;13.00;;;;;;;4.82;100.00;100112.75;5114853;28;20191;-80
2022/11/27 07:56:29;;;;;;;17.63;12.47;;;;;;;4.83;100.00;100109.28;5114002;28;20195;-80
2022/11/27 07:58:58;;;;;;;20.50;12.70;;;;;;;4.94;100.00;100088.84;5115298;27;20232;-80
2022/11/27 08:01:28;;;;;;;27.47;14.97;;;;;;;4.78;100.00;100090.13;5115183;28;20203;-80
2022/11/27 08:03:58;;;;;;;25.23;17.07;;;;;;;4.87;100.00;100088.13;5090122;28;20280;-80
2022/11/27 08:06:27;;;;;;;21.13;15.53;;;;;;;5.01;100.00;100079.88;5117390;27;20268;-80
2022/11/27 08:08:57;;;;;;;23.13;14.60;;;;;;;4.89;100.00;100078.44;5114402;27;20268;-80
2022/11/27 08:11:31;;;;;;;22.87;13.90;;;;;;;5.07;100.00;100071.88;5112856;28;20191;-80
2022/11/27 08:14:01;;;;;;;20.23;13.60;;;;;;;5.04;100.00;100061.44;5114179;28;20195;-82
2022/11/27 08:16:32;;;;;;;22.63;12.87;;;;;;;5.06;100.00;100050.91;5124240;27;20675;-80
2022/11/27 08:19:02;;;;;;;17.47;11.77;;;;;;;5.04;100.00;100048.31;5116926;28;20190;-80
2022/11/27 08:21:30;;;;;;;22.37;14.23;;;;;;;5.11;100.00;100038.50;5117377;27;20283;-80
2022/11/27 08:24:01;;;;;;;22.33;13.17;;;;;;;5.07;100.00;100023.75;5109811;28;20203;-79
2022/11/27 08:26:32;;;;;;;19.47;11.30;;;;;;;5.26;100.00;100042.47;5053417;28;20658;-79
2022/11/27 08:29:00;;;;;;;18.20;12.23;;;;;;;5.31;100.00;100043.22;5088250;28;20523;-79
2022/11/27 08:31:29;;;;;;;17.97;11.97;;;;;;;5.49;100.00;100049.69;5085504;28;20192;-80
2022/11/27 08:33:57;;;;;;;27.27;18.17;;;;;;;5.32;100.00;100042.31;5089117;28;20226;-79
2022/11/27 08:36:29;;;;;;;22.97;12.33;;;;;;;5.44;100.00;100045.44;5086627;28;20220;-79
2022/11/27 08:38:57;;;;;;;18.07;11.37;;;;;;;5.42;100.00;100042.00;5086050;28;20211;-79
2022/11/27 08:41:28;;;;;;;25.87;14.43;;;;;;;5.47;100.00;100049.75;5088763;28;20238;-79
2022/11/27 08:43:58;;;;;;;43.40;21.67;;;;;;;5.26;100.00;100047.72;5092596;28;20202;-80
2022/11/27 08:46:29;;;;;;;27.13;17.00;;;;;;;5.50;100.00;100048.78;5113633;28;20224;-79
2022/11/27 08:48:59;;;;;;;19.43;12.17;;;;;;;5.71;100.00;100051.66;5106989;28;20197;-79
2022/11/27 08:51:29;;;;;;;22.83;14.00;;;;;;;5.66;100.00;100037.78;5050662;28;20247;-80
2022/11/27 08:53:58;;;;;;;18.43;11.20;;;;;;;5.80;100.00;100032.13;5044667;28;20282;-79
2022/11/27 08:56:30;;;;;;;20.63;11.00;;;;;;;5.77;100.00;100026.09;5043507;28;20209;-80
2022/11/27 08:58:59;;;;;;;17.07;10.67;;;;;;;5.55;100.00;100024.09;5050251;28;20220;-80
2022/11/27 09:01:29;;;;;;;14.90;11.33;;;;;;;5.83;100.00;100016.25;5047700;28;20651;-79
2022/11/27 09:03:58;;;;;;;17.90;11.20;;;;;;;6.04;100.00;100012.13;5045957;28;20213;-80
2022/11/27 09:06:30;;;;;;;15.00;10.57;;;;;;;6.17;100.00;100002.91;5047122;28;20248;-79
2022/11/27 09:09:00;;;;;;;17.10;10.80;;;;;;;6.28;100.00;99999.97;5059041;28;20187;-79
2022/11/27 09:11:31;;;;;;;20.83;12.73;;;;;;;6.28;100.00;99995.56;5111130;28;20187;-79
2022/11/27 09:14:00;;;;;;;16.23;10.27;;;;;;;6.10;100.00;100009.31;5106259;28;20244;-80
2022/11/27 09:16:29;;;;;;;13.57;9.40;;;;;;;6.13;100.00;100017.09;5112994;27;20223;-79
2022/11/27 09:18:58;;;;;;;16.07;9.20;;;;;;;6.03;100.00;100013.88;5113346;28;20195;-79
2022/11/27 09:21:30;;;;;;;15.20;10.33;;;;;;;6.12;100.00;100019.78;5113447;28;20582;-79
2022/11/27 09:24:01;;;;;;;14.40;10.63;;;;;;;5.84;100.00;100023.22;5110246;28;20203;-80
2022/11/27 09:26:32;;;;;;;15.37;10.07;;;;;;;5.89;100.00;100023.97;5112888;28;20191;-79
2022/11/27 09:29:00;;;;;;;16.43;10.77;;;;;;;5.99;100.00;100021.94;5111918;28;20187;-79
2022/11/27 09:31:29;;;;;;;18.57;11.40;;;;;;;5.56;100.00;100020.56;5113461;28;20244;-79
2022/11/27 09:33:58;;;;;;;16.90;9.57;;;;;;;5.82;100.00;100022.41;5113134;28;20636;-79
2022/11/27 09:36:27;;;;;;;16.30;10.50;;;;;;;6.09;100.00;99998.84;5112207;27;20215;-79
2022/11/27 09:38:56;;;;;;;13.87;9.50;;;;;;;6.41;100.00;99987.25;5115750;27;20237;-79
2022/11/27 09:41:41;;;;;;;13.90;9.93;;;;;;;6.64;100.00;99987.31;5113232;27;20195;-79
2022/11/27 09:44:34;;;;;;;13.47;8.70;;;;;;;6.73;100.00;99978.22;5109276;28;20248;-79
2022/11/27 09:47:11;;;;;;;14.37;9.23;;;;;;;6.75;100.00;99979.03;5110452;28;20247;-79
2022/11/27 09:49:48;;;;;;;12.73;9.60;;;;;;;6.80;100.00;99962.19;5050210;28;20208;-80
2022/11/27 09:52:24;;;;;;;16.50;10.30;;;;;;;6.59;100.00;99952.41;5029117;28;20266;-79
2022/11/27 09:54:58;;;;;;;14.07;9.00;;;;;;;6.80;100.00;99948.16;5032561;28;20193;-80
2022/11/27 09:57:35;;;;;;;15.10;9.00;;;;;;;6.65;100.00;99949.53;5049745;28;20251;-79
2022/11/27 10:00:13;;;;;;;13.67;8.17;;;;;;;6.94;100.00;99945.88;5046860;28;20197;-81
2022/11/27 10:02:43;;;;;;;13.40;8.00;;;;;;;6.62;100.00;99940.91;5048031;28;20185;-81
2022/11/27 10:05:17;;;;;;;15.67;7.53;;;;;;;6.71;100.00;99935.31;5046417;28;20199;-81
2022/11/27 10:08:11;;;;;;;14.60;8.30;;;;;;;7.02;100.00;99929.78;5047092;28;20215;-81
2022/11/27 10:10:47;;;;;;;12.97;8.30;;;;;;;6.93;100.00;99930.13;5048451;28;20283;-81
2022/11/27 10:13:33;;;;;;;10.33;7.00;;;;;;;6.64;100.00;99918.88;5054859;28;20655;-81
2022/11/27 10:16:10;;;;;;;11.60;7.03;;;;;;;6.58;100.00;99916.47;5115365;27;20354;-81
2022/11/27 10:18:45;;;;;;;13.57;8.07;;;;;;;6.75;100.00;99910.59;5116905;28;20202;-79
2022/11/27 10:21:18;;;;;;;13.23;7.90;;;;;;;6.79;100.00;99907.78;5115728;28;20269;-79
2022/11/27 10:23:51;;;;;;;11.03;7.60;;;;;;;7.05;100.00;99906.00;5116901;28;20251;-81
2022/11/27 10:26:28;;;;;;;12.43;8.27;;;;;;;7.46;100.00;99897.34;5117521;27;20199;-81
2022/11/27 10:29:05;;;;;;;11.47;7.87;;;;;;;7.40;100.00;99896.72;5113101;28;20218;-81
2022/11/27 10:31:36;;;;;;;11.73;8.27;;;;;;;7.52;100.00;99887.47;5116862;28;20298;-81
2022/11/27 10:34:15;;;;;;;10.90;7.40;;;;;;;7.61;100.00;99890.59;5114955;28;20217;-81
2022/11/27 10:36:50;;;;;;;13.47;8.10;;;;;;;7.83;100.00;99881.81;5118818;27;20527;-81
2022/11/27 10:39:32;;;;;;;10.67;7.23;;;;;;;7.90;100.00;99876.22;5071523;28;20200;-81
2022/11/27 10:42:09;;;;;;;12.20;7.27;;;;;;;8.05;100.00;99874.72;5072423;28;20317;-81
2022/11/27 10:44:44;;;;;;;9.80;6.80;;;;;;;7.80;100.00;99858.19;5007583;28;20202;-81
2022/11/27 10:47:15;;;;;;;9.50;6.73;;;;;;;7.77;100.00;99853.91;5007231;28;20198;-81
2022/11/27 10:49:45;;;;;;;8.63;6.30;;;;;;;7.67;100.00;99849.94;5011589;28;20233;-80
2022/11/27 10:52:15;;;;;;;9.73;6.13;;;;;;;7.56;100.00;99842.47;5011608;28;20245;-81
2022/11/27 10:54:51;;;;;;;8.00;6.10;;;;;;;7.63;100.00;99840.47;5014719;28;20249;-81
2022/11/27 10:57:51;;;;;;;11.00;6.73;;;;;;;7.63;100.00;99829.91;5036234;28;20207;-81
2022/11/27 11:00:23;;;;;;;9.10;6.77;;;;;;;7.32;100.00;99819.72;5068290;28;20262;-81
2022/11/27 11:03:00;;;;;;;10.60;6.80;;;;;;;7.43;100.00;99814.88;5073933;28;20208;-81
2022/11/27 11:05:31;;;;;;;12.77;7.30;;;;;;;7.62;100.00;99813.19;5071074;28;20214;-80
2022/11/27 11:08:24;;;;;;;12.57;6.97;;;;;;;7.58;100.00;99808.13;5073194;28;20334;-80
2022/11/27 11:10:58;;;;;;;11.17;6.07;;;;;;;7.56;100.00;99808.22;5030442;28;20194;-80
2022/11/27 11:13:27;;;;;;;17.10;10.73;;;;;;;7.64;100.00;99811.38;5029028;28;20201;-81
2022/11/27 11:16:01;;;;;;;13.93;9.47;;;;;;;7.81;100.00;99793.97;5031597;28;20229;-80
2022/11/27 11:18:34;;;;;;;8.60;6.30;;;;;;;7.72;100.00;99784.69;5033008;28;20299;-80
2022/11/27 11:21:06;;;;;;;13.10;9.50;;;;;;;7.79;100.00;99777.38;5033024;28;20653;-81
2022/11/27 11:23:37;;;;;;;9.40;6.20;;;;;;;7.84;100.00;99778.91;5069529;28;20399;-81
2022/11/27 11:26:12;;;;;;;9.83;6.40;;;;;;;7.98;100.00;99778.28;5070738;28;20192;-81
2022/11/27 11:28:48;;;;;;;10.23;5.33;;;;;;;7.89;100.00;99768.13;5072768;28;20199;-81
2022/11/27 11:31:21;;;;;;;10.97;7.03;;;;;;;8.01;100.00;99762.34;5069359;28;20650;-81
2022/11/27 11:33:56;;;;;;;8.37;4.77;;;;;;;8.04;100.00;99760.44;5071810;28;20253;-80
2022/11/27 11:36:25;;;;;;;7.20;4.47;;;;;;;8.05;100.00;99761.28;5106074;28;20226;-81
2022/11/27 11:38:53;;;;;;;6.63;3.90;;;;;;;8.06;100.00;99759.50;5111442;28;20198;-81